Time;durP1;ratioP1;P1;durP2;ratioP2;P2;SDS_P1;SDS_P2;PMS_P1;PMS_P2;Temp;Humidity;BMP_temperature;BMP_pressure;BME280_temperature;BME280_humidity;BME280_pressure;Samples;Min_cycle;Max_cycle;Signal;HPM_P1;HPM_P2
2021/04/23 00:02:02;;;;;;;14.13;4.75;;;2.70;99.90;;;;;;5076725;28;20043;-66
2021/04/23 00:04:27;;;;;;;17.40;4.70;;;2.50;99.90;;;;;;5082002;28;20549;-66
2021/04/23 00:06:55;;;;;;;18.63;5.30;;;2.30;99.90;;;;;;5079735;28;20035;-66
2021/04/23 00:09:31;;;;;;;12.82;4.82;;;2.20;99.90;;;;;;5081538;28;20056;-66
2021/04/23 00:12:01;;;;;;;15.95;4.85;;;2.20;99.90;;;;;;5080808;28;20032;-67
2021/04/23 00:14:40;;;;;;;16.23;4.90;;;2.10;99.90;;;;;;5080685;28;20526;-67
2021/04/23 00:17:06;;;;;;;16.73;5.40;;;2.00;99.90;;;;;;5070685;28;20344;-67
2021/04/23 00:19:31;;;;;;;16.17;5.85;;;2.00;99.90;;;;;;5080447;28;20047;-66
2021/04/23 00:21:58;;;;;;;14.98;5.10;;;2.00;99.90;;;;;;5076415;28;20608;-66
2021/04/23 00:24:24;;;;;;;17.33;5.47;;;1.90;99.90;;;;;;5085873;28;20554;-66
2021/04/23 00:26:51;;;;;;;18.13;5.47;;;2.00;99.90;;;;;;5078891;28;20865;-67
2021/04/23 00:29:17;;;;;;;16.80;5.93;;;2.10;99.90;;;;;;5079595;28;20353;-66
2021/04/23 00:34:30;;;;;;;17.67;5.35;;;2.10;99.90;;;;;;5069700;28;20047;-66
2021/04/23 00:36:56;;;;;;;17.33;5.82;;;1.90;99.90;;;;;;5074901;28;20027;-66
2021/04/23 00:39:22;;;;;;;20.88;5.88;;;1.80;99.90;;;;;;5082101;28;20114;-66
2021/04/23 00:41:48;;;;;;;19.17;5.57;;;1.80;99.90;;;;;;5080718;28;20025;-66
2021/04/23 00:44:13;;;;;;;15.90;5.43;;;1.80;99.90;;;;;;5070312;28;20513;-66
2021/04/23 00:46:39;;;;;;;14.45;5.13;;;1.60;99.90;;;;;;5078124;28;20532;-65
2021/04/23 00:49:06;;;;;;;22.98;6.82;;;1.60;99.90;;;;;;5073304;28;20505;-66
2021/04/23 00:51:37;;;;;;;18.10;5.20;;;1.50;99.90;;;;;;5075424;28;20391;-66
2021/04/23 00:54:04;;;;;;;22.30;5.47;;;1.70;99.90;;;;;;5071273;28;20090;-66
2021/04/23 00:56:33;;;;;;;17.38;5.63;;;2.30;99.90;;;;;;5074428;28;20476;-68
2021/04/23 00:58:59;;;;;;;16.27;5.60;;;2.40;99.90;;;;;;5085038;28;20056;-69
2021/04/23 01:01:29;;;;;;;15.43;5.05;;;2.30;99.90;;;;;;5083529;28;20366;-65
2021/04/23 01:03:56;;;;;;;18.83;4.97;;;2.20;99.90;;;;;;5087474;28;20028;-65
2021/04/23 01:06:24;;;;;;;17.30;5.65;;;2.60;99.90;;;;;;5083637;28;20118;-65
2021/04/23 01:08:50;;;;;;;16.35;5.00;;;2.30;99.90;;;;;;5082214;28;20024;-68
2021/04/23 01:11:18;;;;;;;14.98;4.93;;;2.40;99.90;;;;;;5078173;28;20102;-66
2021/04/23 01:13:44;;;;;;;13.88;4.90;;;2.10;99.90;;;;;;5085284;28;20036;-65
2021/04/23 01:16:17;;;;;;;15.10;4.72;;;2.10;99.90;;;;;;5092423;27;20413;-67
2021/04/23 01:18:44;;;;;;;13.80;4.63;;;1.80;99.90;;;;;;5071464;28;20020;-66
2021/04/23 01:21:22;;;;;;;13.80;4.93;;;1.60;99.90;;;;;;5083410;28;20040;-66
2021/04/23 01:23:50;;;;;;;15.23;4.80;;;1.40;99.90;;;;;;5086707;28;20021;-68
2021/04/23 01:26:19;;;;;;;14.23;4.60;;;1.40;99.90;;;;;;5075030;28;20028;-66
2021/04/23 01:28:47;;;;;;;15.02;5.32;;;1.20;99.90;;;;;;5081896;28;20048;-69
2021/04/23 01:31:15;;;;;;;16.83;4.88;;;1.30;99.90;;;;;;5075604;28;20043;-67
2021/04/23 01:33:43;;;;;;;17.42;4.80;;;1.10;99.90;;;;;;5083925;28;20469;-68
2021/04/23 01:36:10;;;;;;;16.60;4.97;;;1.00;99.90;;;;;;5077522;28;20028;-69
2021/04/23 01:38:37;;;;;;;20.08;5.75;;;0.90;99.90;;;;;;5082700;28;20069;-68
2021/04/23 01:41:04;;;;;;;16.10;5.60;;;0.70;99.90;;;;;;5077129;28;20052;-68
2021/04/23 01:43:30;;;;;;;16.38;6.13;;;0.70;99.90;;;;;;5080286;28;20116;-67
2021/04/23 01:45:56;;;;;;;16.17;5.43;;;0.70;99.90;;;;;;5087259;28;20061;-68
2021/04/23 01:48:22;;;;;;;24.67;5.70;;;0.70;99.90;;;;;;5082383;28;20404;-66
2021/04/23 01:50:48;;;;;;;18.60;5.97;;;0.60;99.90;;;;;;5085303;28;20047;-69
2021/04/23 01:53:14;;;;;;;17.98;5.60;;;0.60;99.90;;;;;;5091411;28;20268;-67
2021/04/23 01:55:40;;;;;;;13.13;4.93;;;0.60;99.90;;;;;;5086824;28;20472;-66
2021/04/23 01:58:07;;;;;;;20.90;5.45;;;0.40;99.90;;;;;;5084434;28;20040;-68
2021/04/23 02:00:40;;;;;;;17.83;5.70;;;0.40;99.90;;;;;;5094760;28;20024;-68
2021/04/23 02:03:08;;;;;;;17.20;4.75;;;0.30;99.90;;;;;;5076545;28;20031;-68
2021/04/23 02:05:35;;;;;;;16.75;5.50;;;0.30;99.90;;;;;;5079138;28;20479;-66
2021/04/23 02:08:01;;;;;;;14.30;5.07;;;0.30;99.90;;;;;;5083237;28;20039;-67
2021/04/23 02:10:31;;;;;;;14.80;5.13;;;0.40;99.90;;;;;;5084904;28;20027;-70
2021/04/23 02:12:58;;;;;;;26.95;6.07;;;0.40;99.90;;;;;;5088461;28;20024;-69
2021/04/23 02:15:27;;;;;;;18.08;6.15;;;0.50;99.90;;;;;;5089663;28;21658;-70
2021/04/23 02:17:54;;;;;;;18.55;5.65;;;0.60;99.90;;;;;;5079892;28;20074;-70
2021/04/23 02:20:23;;;;;;;19.75;5.70;;;1.00;99.90;;;;;;5086568;28;20472;-69
2021/04/23 02:22:49;;;;;;;17.60;5.20;;;0.90;99.90;;;;;;5072212;28;20029;-70
2021/04/23 02:25:17;;;;;;;23.70;6.57;;;0.80;99.90;;;;;;5089922;28;20514;-67
2021/04/23 02:27:43;;;;;;;14.68;5.07;;;0.80;99.90;;;;;;5087625;28;20448;-68
2021/04/23 02:30:13;;;;;;;18.83;5.72;;;0.90;99.90;;;;;;5085678;28;20032;-67
2021/04/23 02:32:39;;;;;;;14.95;5.38;;;1.60;99.90;;;;;;5092951;28;20028;-68
2021/04/23 02:35:08;;;;;;;16.63;5.57;;;1.10;99.90;;;;;;5078883;28;20028;-69
2021/04/23 02:37:34;;;;;;;20.27;5.80;;;1.00;99.90;;;;;;5083456;28;20032;-68
2021/04/23 02:39:59;;;;;;;14.90;5.60;;;0.80;99.90;;;;;;5086947;28;20106;-68
2021/04/23 02:42:26;;;;;;;15.05;5.80;;;0.70;99.90;;;;;;5085676;28;20103;-68
2021/04/23 02:44:51;;;;;;;19.23;5.43;;;0.50;99.90;;;;;;5069676;28;20025;-68
2021/04/23 02:47:17;;;;;;;18.45;5.38;;;0.50;99.90;;;;;;5084751;28;20399;-68
2021/04/23 02:49:43;;;;;;;18.33;6.15;;;0.40;99.90;;;;;;5081881;28;20111;-67
2021/04/23 02:52:09;;;;;;;22.75;6.00;;;0.40;99.90;;;;;;5078097;28;20047;-70
2021/04/23 02:54:34;;;;;;;14.38;5.78;;;0.80;99.90;;;;;;5086582;28;20052;-69
2021/04/23 02:57:00;;;;;;;17.42;5.65;;;0.80;99.90;;;;;;5080227;28;20016;-67
2021/04/23 02:59:26;;;;;;;16.70;5.53;;;0.70;99.90;;;;;;5080793;28;20020;-67
2021/04/23 03:01:55;;;;;;;17.35;5.95;;;0.60;99.90;;;;;;5084125;28;20031;-67
2021/04/23 03:04:22;;;;;;;22.90;5.82;;;0.60;99.90;;;;;;5086491;28;20725;-67
2021/04/23 03:06:49;;;;;;;24.08;6.10;;;0.40;99.90;;;;;;5084798;28;20016;-68
2021/04/23 03:09:15;;;;;;;20.70;6.18;;;0.30;99.90;;;;;;5082028;28;20503;-68
2021/04/23 03:11:41;;;;;;;18.27;6.10;;;0.40;99.90;;;;;;5076191;28;20058;-68
2021/04/23 03:14:07;;;;;;;20.98;7.03;;;0.10;99.90;;;;;;5090541;28;20020;-68
2021/04/23 03:16:37;;;;;;;19.70;5.40;;;0.10;99.90;;;;;;5080943;28;20036;-68
2021/04/23 03:19:08;;;;;;;16.13;5.40;;;0.00;99.90;;;;;;5075247;28;20020;-69
2021/04/23 03:21:34;;;;;;;19.05;6.07;;;0.00;99.90;;;;;;5091157;28;20255;-68
2021/04/23 03:24:00;;;;;;;18.20;6.38;;;0.00;99.90;;;;;;5091578;28;20024;-68
2021/04/23 03:26:26;;;;;;;23.08;6.13;;;0.30;99.90;;;;;;5081022;28;20434;-69
2021/04/23 03:28:52;;;;;;;19.10;5.95;;;0.30;99.90;;;;;;5086284;28;20055;-68
2021/04/23 03:31:19;;;;;;;19.58;6.57;;;0.20;99.90;;;;;;5078516;28;20089;-68
2021/04/23 03:33:44;;;;;;;16.80;5.95;;;0.10;99.90;;;;;;5081311;28;20398;-68
2021/04/23 03:36:11;;;;;;;20.40;5.97;;;-0.10;99.90;;;;;;5087124;28;20119;-69
2021/04/23 03:38:40;;;;;;;21.95;6.63;;;-0.10;99.90;;;;;;5082462;28;20020;-68
2021/04/23 03:41:10;;;;;;;19.58;6.10;;;0.00;99.90;;;;;;5083924;28;20503;-68
2021/04/23 03:43:36;;;;;;;20.08;6.35;;;-0.10;99.90;;;;;;5072310;28;20039;-68
2021/04/23 03:46:03;;;;;;;20.23;6.30;;;-0.10;99.90;;;;;;5079506;28;20029;-68
2021/04/23 03:48:29;;;;;;;26.38;7.00;;;-0.30;99.90;;;;;;5075553;28;20074;-68
2021/04/23 03:50:54;;;;;;;27.20;6.97;;;-0.20;99.90;;;;;;5087213;28;20459;-68
2021/04/23 03:53:20;;;;;;;23.45;6.43;;;-0.30;99.90;;;;;;5083005;28;20056;-68
2021/04/23 03:55:51;;;;;;;21.63;6.47;;;-0.30;99.90;;;;;;5085050;28;20466;-68
2021/04/23 03:58:18;;;;;;;18.63;6.53;;;-0.30;99.90;;;;;;5077047;28;20040;-67
2021/04/23 04:00:54;;;;;;;28.63;6.72;;;-0.40;99.90;;;;;;5082355;28;20040;-68
2021/04/23 04:03:20;;;;;;;21.20;6.53;;;-0.40;99.90;;;;;;5079954;28;20073;-68
2021/04/23 04:05:47;;;;;;;19.17;6.63;;;-0.50;99.90;;;;;;5078386;28;20410;-68
2021/04/23 04:08:12;;;;;;;19.02;7.10;;;-0.40;99.90;;;;;;5088615;28;20757;-69
2021/04/23 04:10:39;;;;;;;19.85;6.60;;;-0.50;99.90;;;;;;5071222;28;20047;-68
2021/04/23 04:13:05;;;;;;;25.65;6.75;;;-0.30;99.90;;;;;;5085114;28;20426;-68
2021/04/23 04:15:31;;;;;;;22.13;7.20;;;-0.40;99.90;;;;;;5095648;28;20024;-68
2021/04/23 04:17:56;;;;;;;21.75;6.45;;;-0.50;99.90;;;;;;5077476;28;20020;-68
2021/04/23 04:20:25;;;;;;;21.65;6.43;;;-0.60;99.90;;;;;;5100883;27;20036;-68
2021/04/23 04:22:51;;;;;;;24.17;6.53;;;-0.70;99.90;;;;;;5083481;28;20032;-67
2021/04/23 04:25:24;;;;;;;19.90;7.30;;;-0.70;99.90;;;;;;5089213;28;20511;-68
2021/04/23 04:27:50;;;;;;;24.65;6.90;;;-0.70;99.90;;;;;;5079224;28;20600;-67
2021/04/23 04:30:16;;;;;;;23.10;7.57;;;-0.50;99.90;;;;;;5077761;28;20142;-67
2021/04/23 04:32:41;;;;;;;19.77;6.55;;;-0.40;99.90;;;;;;5087823;28;20698;-68
2021/04/23 04:35:09;;;;;;;23.80;6.95;;;-0.50;99.90;;;;;;5082710;28;20488;-68
2021/04/23 04:37:35;;;;;;;26.55;9.00;;;-0.50;99.90;;;;;;5077526;28;20033;-68
2021/04/23 04:40:01;;;;;;;23.85;6.78;;;-0.40;99.90;;;;;;5080543;28;20503;-68
2021/04/23 04:42:28;;;;;;;26.05;7.63;;;-0.30;99.90;;;;;;5080594;28;20153;-68
2021/04/23 04:45:00;;;;;;;24.52;7.13;;;-0.30;99.90;;;;;;5074473;28;20186;-67
2021/04/23 04:47:26;;;;;;;28.08;8.23;;;-0.20;99.90;;;;;;5082760;28;20032;-66
2021/04/23 04:49:52;;;;;;;22.85;7.80;;;0.00;99.90;;;;;;5082144;28;20061;-67
2021/04/23 04:52:17;;;;;;;27.38;8.25;;;-0.10;99.90;;;;;;5088103;28;20027;-67
2021/04/23 04:54:43;;;;;;;24.52;7.72;;;-0.10;99.90;;;;;;5076335;28;20044;-68
2021/04/23 04:57:08;;;;;;;32.22;8.05;;;-0.10;99.90;;;;;;5068877;28;20024;-67
2021/04/23 04:59:34;;;;;;;24.95;7.75;;;-0.20;99.90;;;;;;5073709;28;20414;-67
2021/04/23 05:02:00;;;;;;;24.77;7.95;;;-0.10;99.90;;;;;;5084785;28;20020;-68
2021/04/23 05:04:25;;;;;;;29.02;8.75;;;0.10;99.90;;;;;;5075365;28;20489;-66
2021/04/23 05:06:51;;;;;;;24.30;7.43;;;0.20;99.90;;;;;;5072937;28;20038;-67
2021/04/23 05:09:16;;;;;;;26.80;8.15;;;0.20;99.90;;;;;;5074444;28;20016;-67
2021/04/23 05:11:42;;;;;;;24.85;8.20;;;0.20;99.90;;;;;;5069300;28;20033;-66
2021/04/23 05:14:07;;;;;;;26.83;7.88;;;0.20;99.90;;;;;;5077734;28;20120;-65
2021/04/23 05:16:33;;;;;;;24.92;8.98;;;0.20;99.90;;;;;;5079186;28;20394;-67
2021/04/23 05:18:59;;;;;;;33.03;9.73;;;0.40;99.90;;;;;;5072186;28;20404;-65
2021/04/23 05:21:25;;;;;;;36.22;10.00;;;0.70;99.90;;;;;;5072469;28;20047;-66
2021/04/23 05:23:51;;;;;;;36.60;9.30;;;0.70;99.90;;;;;;5071684;28;20042;-66
2021/04/23 05:26:16;;;;;;;29.42;8.82;;;0.80;99.90;;;;;;5075473;28;20024;-66
2021/04/23 05:28:42;;;;;;;28.05;9.32;;;1.10;99.90;;;;;;5080902;28;20024;-68
2021/04/23 05:31:08;;;;;;;30.75;9.18;;;1.30;99.90;;;;;;5080853;28;20435;-68
2021/04/23 05:33:33;;;;;;;29.85;9.73;;;1.40;99.90;;;;;;5077440;28;20032;-67
2021/04/23 05:35:59;;;;;;;33.65;10.10;;;1.50;99.90;;;;;;5076209;28;20527;-66
2021/04/23 05:38:25;;;;;;;30.30;9.38;;;1.80;99.90;;;;;;5084734;28;20017;-66
2021/04/23 05:40:51;;;;;;;33.33;9.40;;;2.10;99.90;;;;;;5075324;28;20036;-65
2021/04/23 05:43:18;;;;;;;27.20;9.90;;;2.10;99.90;;;;;;5074366;28;20032;-66
2021/04/23 05:45:45;;;;;;;24.50;8.65;;;2.20;99.90;;;;;;5082896;28;20032;-67
2021/04/23 05:48:12;;;;;;;15.68;4.72;;;2.40;99.90;;;;;;5069502;28;20531;-67
2021/04/23 05:50:38;;;;;;;23.77;7.47;;;2.70;99.90;;;;;;5075477;28;20055;-66
2021/04/23 05:53:05;;;;;;;25.27;8.25;;;3.10;99.90;;;;;;5073888;28;20073;-65
2021/04/23 05:55:31;;;;;;;19.48;6.25;;;3.20;99.90;;;;;;5074321;28;20024;-68
2021/04/23 05:57:59;;;;;;;24.10;6.22;;;3.50;99.90;;;;;;5072075;28;20387;-68
2021/04/23 06:00:27;;;;;;;17.08;5.60;;;3.70;99.90;;;;;;5072700;28;20787;-66
2021/04/23 06:02:54;;;;;;;19.75;6.88;;;3.70;99.90;;;;;;5073046;28;20052;-66
2021/04/23 06:05:21;;;;;;;23.35;6.32;;;3.80;99.90;;;;;;5074279;28;20027;-66
2021/04/23 06:07:47;;;;;;;17.40;5.75;;;3.90;99.90;;;;;;5071210;28;20017;-66
2021/04/23 06:10:15;;;;;;;20.83;7.30;;;4.00;99.90;;;;;;5073196;28;20043;-66
2021/04/23 06:12:42;;;;;;;26.35;7.38;;;4.00;99.90;;;;;;5076452;28;20107;-67
2021/04/23 06:15:09;;;;;;;26.63;6.25;;;4.00;99.90;;;;;;5075103;28;20037;-67
2021/04/23 06:17:35;;;;;;;27.10;6.97;;;4.10;99.90;;;;;;5077564;28;20387;-66
2021/04/23 06:20:03;;;;;;;27.83;7.70;;;4.20;99.90;;;;;;5082643;28;20032;-66
2021/04/23 06:22:29;;;;;;;22.95;7.28;;;4.20;99.90;;;;;;5081834;28;20573;-65
2021/04/23 06:24:54;;;;;;;20.23;6.28;;;4.40;99.90;;;;;;5080140;28;20032;-64
2021/04/23 06:27:20;;;;;;;30.50;8.05;;;4.40;99.90;;;;;;5079579;28;20039;-65
2021/04/23 06:29:47;;;;;;;22.63;7.15;;;4.50;99.90;;;;;;5080323;28;20047;-66
2021/04/23 06:32:13;;;;;;;28.38;7.07;;;4.60;99.90;;;;;;5086153;28;20043;-65
2021/04/23 06:34:38;;;;;;;22.33;6.93;;;4.80;99.90;;;;;;5080529;28;20456;-68
2021/04/23 06:37:05;;;;;;;20.02;5.85;;;4.90;99.90;;;;;;5081375;28;20373;-68
2021/04/23 06:39:30;;;;;;;25.52;6.88;;;5.10;99.90;;;;;;5084058;28;20033;-66
2021/04/23 06:41:56;;;;;;;20.88;6.22;;;5.20;99.90;;;;;;5078096;28;20047;-66
2021/04/23 06:44:22;;;;;;;24.98;6.80;;;5.30;99.90;;;;;;5080280;28;20099;-66
2021/04/23 06:46:47;;;;;;;22.58;6.60;;;5.50;99.90;;;;;;5083803;28;20066;-66
2021/04/23 06:49:13;;;;;;;16.13;4.70;;;5.60;99.90;;;;;;5087195;28;20104;-66
2021/04/23 06:51:40;;;;;;;21.05;5.88;;;5.70;99.90;;;;;;5085065;28;20028;-67
2021/04/23 06:54:06;;;;;;;18.85;5.18;;;5.80;99.90;;;;;;5081830;28;20084;-66
2021/04/23 06:56:32;;;;;;;17.67;4.90;;;5.90;99.90;;;;;;5078146;28;20078;-66
2021/04/23 06:58:58;;;;;;;27.13;5.43;;;5.90;99.90;;;;;;5084696;28;20020;-66
2021/04/23 07:01:24;;;;;;;12.68;4.10;;;6.00;99.90;;;;;;5088410;28;20365;-66
2021/04/23 07:03:50;;;;;;;17.05;5.10;;;6.10;99.90;;;;;;5087580;28;20059;-67
2021/04/23 07:06:15;;;;;;;18.33;5.53;;;6.10;99.90;;;;;;5079181;28;20028;-66
2021/04/23 07:08:41;;;;;;;18.63;5.40;;;6.20;99.90;;;;;;5080232;28;20028;-66
2021/04/23 07:11:07;;;;;;;14.10;5.38;;;6.30;99.90;;;;;;5082829;28;20028;-66
2021/04/23 07:13:32;;;;;;;14.18;4.97;;;6.50;99.90;;;;;;5091141;28;20035;-66
2021/04/23 07:15:58;;;;;;;19.08;5.30;;;6.60;99.90;;;;;;5094614;28;20027;-66
2021/04/23 07:18:24;;;;;;;15.90;4.78;;;6.50;99.90;;;;;;5088202;28;20032;-66
2021/04/23 07:20:49;;;;;;;18.27;5.95;;;6.50;99.90;;;;;;5089044;28;20047;-66
2021/04/23 07:23:15;;;;;;;21.35;6.45;;;6.60;99.90;;;;;;5080781;28;20099;-66
2021/04/23 07:25:41;;;;;;;12.15;4.90;;;6.70;99.90;;;;;;5081519;28;20039;-66
2021/04/23 07:28:07;;;;;;;17.75;5.72;;;7.00;99.90;;;;;;5078704;28;20033;-66
2021/04/23 07:30:35;;;;;;;12.95;4.70;;;6.90;99.90;;;;;;5084044;28;20031;-66
2021/04/23 07:33:03;;;;;;;14.55;5.35;;;6.90;99.90;;;;;;5071041;28;20032;-66
2021/04/23 07:35:29;;;;;;;11.73;3.85;;;6.90;99.90;;;;;;5071739;28;20078;-66
2021/04/23 07:37:57;;;;;;;14.73;3.95;;;7.10;99.90;;;;;;5072398;28;20020;-66
2021/04/23 07:40:22;;;;;;;12.77;4.50;;;7.20;99.90;;;;;;5078989;28;20038;-66
2021/04/23 07:42:48;;;;;;;12.70;4.03;;;7.40;99.90;;;;;;5075989;28;20388;-66
2021/04/23 07:45:15;;;;;;;19.90;6.22;;;7.40;99.90;;;;;;5073889;28;20726;-66
2021/04/23 07:47:42;;;;;;;14.88;5.18;;;7.30;99.90;;;;;;5084765;28;20069;-67
2021/04/23 07:50:10;;;;;;;12.40;4.03;;;7.40;99.90;;;;;;5077489;28;20479;-67
2021/04/23 07:52:36;;;;;;;20.40;4.80;;;7.60;99.90;;;;;;5086715;28;20036;-66
2021/04/23 07:55:03;;;;;;;14.55;4.50;;;7.40;99.90;;;;;;5082370;28;20101;-66
2021/04/23 07:57:29;;;;;;;13.23;4.95;;;7.70;99.90;;;;;;5078302;28;20130;-66
2021/04/23 07:59:56;;;;;;;12.98;4.55;;;7.90;99.90;;;;;;5090152;28;20025;-67
2021/04/23 08:02:21;;;;;;;17.55;5.47;;;7.80;99.90;;;;;;5080689;28;20066;-66
2021/04/23 08:04:48;;;;;;;14.63;4.43;;;8.40;99.90;;;;;;5083986;28;20155;-66
2021/04/23 08:07:13;;;;;;;16.33;4.75;;;8.90;99.90;;;;;;5076774;28;20020;-67
2021/04/23 08:09:40;;;;;;;14.65;4.10;;;9.30;99.90;;;;;;5081758;28;20441;-66
2021/04/23 08:12:08;;;;;;;15.48;4.53;;;9.70;99.90;;;;;;5075193;28;20107;-66
2021/04/23 08:14:34;;;;;;;14.38;4.28;;;10.00;99.90;;;;;;5084593;28;20019;-67
2021/04/23 08:17:01;;;;;;;18.58;4.85;;;9.60;99.90;;;;;;5081255;28;20115;-68
2021/04/23 08:19:26;;;;;;;10.38;3.35;;;9.20;99.90;;;;;;5080295;28;20025;-67
2021/04/23 08:21:52;;;;;;;11.98;3.45;;;9.40;99.90;;;;;;5080230;28;20040;-66
2021/04/23 08:24:18;;;;;;;15.38;4.60;;;8.80;99.90;;;;;;5083798;28;20103;-66
2021/04/23 08:26:44;;;;;;;10.80;4.20;;;8.60;99.90;;;;;;5075637;28;20119;-67
2021/04/23 08:29:11;;;;;;;17.80;4.03;;;8.50;99.90;;;;;;5086531;28;20054;-66
2021/04/23 08:31:42;;;;;;;16.23;5.18;;;8.80;99.90;;;;;;5084010;28;20498;-67
2021/04/23 08:34:08;;;;;;;14.30;5.28;;;8.60;99.90;;;;;;5076329;28;20044;-67
2021/04/23 08:36:34;;;;;;;11.57;4.43;;;8.90;99.90;;;;;;5082911;28;20494;-67
2021/04/23 08:39:01;;;;;;;14.32;5.25;;;9.20;99.90;;;;;;5090001;28;20085;-67
2021/04/23 08:41:26;;;;;;;12.98;5.57;;;9.40;99.90;;;;;;5075597;28;20032;-66
2021/04/23 08:43:52;;;;;;;13.05;4.78;;;9.30;99.90;;;;;;5073671;28;20758;-66
2021/04/23 08:46:18;;;;;;;14.57;5.45;;;9.60;99.90;;;;;;5077426;28;20063;-67
2021/04/23 08:48:44;;;;;;;14.70;5.72;;;9.80;99.90;;;;;;5069329;28;20012;-67
2021/04/23 08:51:11;;;;;;;13.38;5.07;;;9.40;99.90;;;;;;5080740;28;20024;-66
2021/04/23 08:53:37;;;;;;;14.98;6.28;;;9.20;99.90;;;;;;5075498;28;20051;-67
2021/04/23 08:56:03;;;;;;;18.48;6.97;;;9.30;99.90;;;;;;5081669;28;20025;-67
2021/04/23 08:58:29;;;;;;;15.68;7.60;;;10.00;99.90;;;;;;5072762;28;20476;-67
2021/04/23 09:00:55;;;;;;;18.85;8.80;;;10.50;97.20;;;;;;5076069;28;20337;-66
2021/04/23 09:03:22;;;;;;;19.25;7.70;;;13.00;95.60;;;;;;5075556;28;20074;-67
2021/04/23 09:06:15;;;;;;;15.55;8.25;;;13.10;95.70;;;;;;5074845;28;20511;-67
2021/04/23 09:08:59;;;;;;;13.98;7.30;;;14.40;93.00;;;;;;5076290;28;20028;-68
2021/04/23 09:11:25;;;;;;;16.17;7.20;;;14.50;86.30;;;;;;5080749;28;20048;-67
2021/04/23 09:13:53;;;;;;;17.85;8.38;;;11.80;91.50;;;;;;5086656;28;20510;-67
2021/04/23 09:16:21;;;;;;;19.63;8.65;;;10.90;93.60;;;;;;5082458;28;20020;-68
2021/04/23 09:18:47;;;;;;;27.60;10.93;;;10.70;94.20;;;;;;5085421;28;20044;-68
2021/04/23 09:21:16;;;;;;;16.90;6.43;;;9.90;96.20;;;;;;5077505;28;20094;-68
2021/04/23 09:23:53;;;;;;;14.25;6.22;;;11.30;93.80;;;;;;5076953;28;20025;-68
2021/04/23 09:26:37;;;;;;;13.13;5.32;;;11.60;91.60;;;;;;5074000;28;20434;-68
2021/04/23 09:29:05;;;;;;;12.52;6.22;;;11.00;92.40;;;;;;5082802;28;20031;-67
2021/04/23 09:31:35;;;;;;;13.98;6.80;;;12.00;89.40;;;;;;5072954;28;20028;-68
2021/04/23 09:34:05;;;;;;;12.55;6.35;;;13.30;86.70;;;;;;5081522;28;20016;-67
2021/04/23 09:36:36;;;;;;;17.73;8.40;;;13.70;83.90;;;;;;5086396;28;20058;-68
2021/04/23 09:39:18;;;;;;;14.68;7.50;;;14.90;80.30;;;;;;5089975;28;20546;-68
2021/04/23 09:42:02;;;;;;;15.73;8.02;;;14.50;80.20;;;;;;5084718;28;20047;-67
2021/04/23 09:44:34;;;;;;;15.15;7.05;;;15.30;79.10;;;;;;5088386;28;20032;-67
2021/04/23 09:47:01;;;;;;;14.73;6.93;;;14.80;80.20;;;;;;5091193;28;20030;-67
2021/04/23 09:49:28;;;;;;;17.58;7.30;;;13.60;77.50;;;;;;5090134;28;20032;-68
2021/04/23 09:51:54;;;;;;;17.83;9.15;;;13.90;82.40;;;;;;5084762;28;20040;-67
2021/04/23 09:54:22;;;;;;;20.48;9.40;;;14.30;77.90;;;;;;5077087;28;20177;-68
2021/04/23 09:56:49;;;;;;;16.27;8.70;;;14.60;76.70;;;;;;5071980;28;20024;-67
2021/04/23 09:59:18;;;;;;;18.00;9.65;;;14.30;77.10;;;;;;5081086;28;20483;-67
2021/04/23 10:02:01;;;;;;;18.60;8.47;;;14.90;74.50;;;;;;5077122;28;20036;-67
2021/04/23 10:04:29;;;;;;;18.77;9.35;;;14.20;75.20;;;;;;5084537;28;20391;-68
2021/04/23 10:07:08;;;;;;;18.17;9.40;;;12.90;81.30;;;;;;5079862;28;20036;-67
2021/04/23 10:09:41;;;;;;;18.83;9.40;;;13.20;81.70;;;;;;5091291;28;20027;-67
2021/04/23 10:12:07;;;;;;;16.58;7.93;;;14.00;82.90;;;;;;5080451;28;20047;-67
2021/04/23 10:14:33;;;;;;;16.70;7.93;;;14.70;77.60;;;;;;5073728;28;20105;-67
2021/04/23 10:16:59;;;;;;;16.23;7.03;;;15.00;76.00;;;;;;5082011;28;20032;-67
2021/04/23 10:19:26;;;;;;;15.88;6.72;;;15.90;71.20;;;;;;5083877;28;20028;-67
2021/04/23 10:21:53;;;;;;;14.52;6.50;;;15.10;76.30;;;;;;5077937;28;20035;-67
2021/04/23 10:24:21;;;;;;;19.85;7.55;;;16.30;75.00;;;;;;5091320;28;20028;-67
2021/04/23 10:26:49;;;;;;;16.70;7.63;;;16.30;70.00;;;;;;5093437;28;20027;-67
2021/04/23 10:29:16;;;;;;;12.00;5.82;;;16.40;68.60;;;;;;5084943;28;20092;-67
2021/04/23 10:31:42;;;;;;;14.40;6.97;;;16.60;67.30;;;;;;5073073;28;20126;-67
2021/04/23 10:34:09;;;;;;;16.40;7.75;;;15.60;65.80;;;;;;5080933;28;20627;-67
2021/04/23 10:36:37;;;;;;;14.52;6.80;;;14.90;67.50;;;;;;5080961;28;20024;-67
2021/04/23 10:39:03;;;;;;;16.35;7.32;;;15.80;68.10;;;;;;5080588;28;20028;-68
2021/04/23 10:41:38;;;;;;;16.65;7.13;;;17.40;64.60;;;;;;5083608;28;20884;-68
2021/04/23 10:44:04;;;;;;;13.50;7.18;;;16.40;66.20;;;;;;5070760;28;20020;-67
2021/04/23 10:46:36;;;;;;;22.23;8.35;;;16.10;65.70;;;;;;5072842;28;20032;-67
2021/04/23 10:49:07;;;;;;;14.85;6.88;;;15.00;66.20;;;;;;5085084;28;20020;-67
2021/04/23 10:51:33;;;;;;;17.08;7.05;;;16.30;65.60;;;;;;5092582;28;20028;-67
2021/04/23 10:54:17;;;;;;;20.98;7.30;;;18.00;65.40;;;;;;5088698;28;20116;-67
2021/04/23 10:56:51;;;;;;;19.65;6.78;;;18.30;61.50;;;;;;5081904;28;20036;-68
2021/04/23 10:59:23;;;;;;;16.25;8.48;;;18.40;60.20;;;;;;5078454;28;20112;-67
2021/04/23 11:01:51;;;;;;;16.23;8.38;;;16.60;63.00;;;;;;5075992;28;20040;-67
2021/04/23 11:04:18;;;;;;;17.30;7.55;;;17.10;63.60;;;;;;5073521;28;20027;-73
2021/04/23 11:06:54;;;;;;;16.10;7.10;;;17.10;64.70;;;;;;5086175;28;20375;-74
2021/04/23 11:09:21;;;;;;;15.20;6.75;;;17.70;62.50;;;;;;5086067;28;20085;-74
2021/04/23 11:12:08;;;;;;;17.73;7.68;;;17.00;59.40;;;;;;5080528;28;20487;-74
2021/04/23 11:14:35;;;;;;;14.30;7.05;;;16.80;60.50;;;;;;5097197;28;20273;-74
2021/04/23 11:17:20;;;;;;;19.35;8.20;;;16.80;62.30;;;;;;5079163;28;20016;-74
2021/04/23 11:19:47;;;;;;;17.05;8.70;;;16.30;64.30;;;;;;5087781;28;20020;-74
2021/04/23 11:22:22;;;;;;;19.55;8.43;;;14.60;65.20;;;;;;5076363;28;20919;-74
2021/04/23 11:25:12;;;;;;;17.85;8.55;;;16.10;63.00;;;;;;5078753;28;20017;-67
2021/04/23 11:27:57;;;;;;;15.75;7.90;;;16.50;62.10;;;;;;5080120;28;20024;-68
2021/04/23 11:30:22;;;;;;;20.15;8.38;;;16.80;62.90;;;;;;5086547;28;20107;-67
2021/04/23 11:32:53;;;;;;;19.10;8.90;;;16.60;64.00;;;;;;5092288;28;20124;-67
2021/04/23 11:35:21;;;;;;;16.10;8.52;;;17.20;61.90;;;;;;5089547;28;20131;-67
2021/04/23 11:37:53;;;;;;;15.05;7.70;;;16.70;63.80;;;;;;5086096;28;20047;-67
2021/04/23 11:40:28;;;;;;;16.55;7.85;;;16.10;63.60;;;;;;5083900;28;20040;-67
2021/04/23 11:42:57;;;;;;;15.93;7.63;;;17.40;61.60;;;;;;5080147;28;20568;-68
2021/04/23 11:45:25;;;;;;;18.08;6.93;;;17.20;59.40;;;;;;5081420;28;20042;-68
2021/04/23 11:48:00;;;;;;;15.32;7.80;;;17.80;59.60;;;;;;5087458;28;20031;-68
2021/04/23 11:50:33;;;;;;;14.57;7.05;;;16.90;59.50;;;;;;5083266;28;20044;-67
2021/04/23 11:53:13;;;;;;;14.43;7.55;;;16.90;61.40;;;;;;5082711;28;20134;-70
2021/04/23 11:55:50;;;;;;;16.70;7.40;;;16.30;62.30;;;;;;5084510;28;20081;-67
2021/04/23 11:58:37;;;;;;;15.35;6.88;;;17.10;60.70;;;;;;5083882;28;20039;-68
2021/04/23 12:01:03;;;;;;;15.48;6.03;;;16.90;60.50;;;;;;5073603;28;20689;-68
2021/04/23 12:03:28;;;;;;;13.82;5.72;;;17.00;61.70;;;;;;5073742;28;20087;-67
2021/04/23 12:05:56;;;;;;;13.27;5.43;;;17.50;62.60;;;;;;5085867;28;20076;-70
2021/04/23 12:08:23;;;;;;;13.75;4.80;;;18.70;59.80;;;;;;5083006;28;20020;-67
2021/04/23 12:10:54;;;;;;;11.25;5.47;;;19.70;58.00;;;;;;5084018;28;20059;-67
2021/04/23 12:13:23;;;;;;;13.75;5.40;;;20.00;55.10;;;;;;5080937;28;20028;-67
2021/04/23 12:16:00;;;;;;;14.40;5.78;;;19.20;57.50;;;;;;5076286;28;20836;-69
2021/04/23 12:18:27;;;;;;;13.52;5.25;;;17.80;60.50;;;;;;5079999;28;20035;-67
2021/04/23 12:21:01;;;;;;;13.68;4.95;;;17.80;59.80;;;;;;5082473;28;20553;-68
2021/04/23 12:23:29;;;;;;;12.10;4.95;;;17.00;59.60;;;;;;5075777;28;20025;-68
2021/04/23 12:26:00;;;;;;;11.35;4.85;;;19.20;58.00;;;;;;5073177;28;20036;-68
2021/04/23 12:28:36;;;;;;;12.05;5.30;;;18.20;59.70;;;;;;5077413;28;20419;-67
2021/04/23 12:31:18;;;;;;;13.30;4.72;;;18.70;58.80;;;;;;5081821;28;20538;-68
2021/04/23 12:33:55;;;;;;;13.02;5.32;;;21.70;55.20;;;;;;5078433;28;20028;-68
2021/04/23 12:36:47;;;;;;;20.58;5.47;;;21.20;53.20;;;;;;5079705;28;20020;-69
2021/04/23 12:39:34;;;;;;;11.95;5.03;;;19.10;53.70;;;;;;5078648;28;20028;-69
2021/04/23 12:42:03;;;;;;;12.90;5.25;;;18.20;54.40;;;;;;5079556;28;20023;-69
2021/04/23 12:44:30;;;;;;;9.93;4.45;;;18.30;55.50;;;;;;5080952;28;20051;-69
2021/04/23 12:47:03;;;;;;;14.45;5.15;;;18.60;55.60;;;;;;5083604;28;20027;-68
2021/04/23 12:49:33;;;;;;;10.88;3.97;;;18.80;54.50;;;;;;5080686;28;20021;-68
2021/04/23 12:52:07;;;;;;;9.48;3.60;;;18.90;56.00;;;;;;5084051;28;20194;-67